Time;durP1;ratioP1;P1;durP2;ratioP2;P2;SDS_P1;SDS_P2;PMS_P1;PMS_P2;Temp;Humidity;BMP_temperature;BMP_pressure;BME280_temperature;BME280_humidity;BME280_pressure;Samples;Min_cycle;Max_cycle;Signal;HPM_P1;HPM_P2
2021/05/29 00:02:20;;;;;;;7.50;6.07;;;;;;;10.53;70.09;100114.84;233061;1174;115983;-70
2021/05/29 00:07:25;;;;;;;7.88;6.50;;;;;;;10.50;70.45;100112.62;232570;1174;115931;-71
2021/05/29 00:12:29;;;;;;;10.70;8.03;;;;;;;10.48;70.33;100115.51;232593;1167;115294;-69
2021/05/29 00:17:32;;;;;;;6.20;4.93;;;;;;;10.43;70.67;100110.03;232961;1174;115350;-67
2021/05/29 00:22:36;;;;;;;7.27;5.83;;;;;;;10.42;70.53;100108.41;233641;1174;116083;-69
2021/05/29 00:27:41;;;;;;;9.35;5.98;;;;;;;10.36;70.19;100107.47;233253;1174;116111;-69
2021/05/29 00:32:45;;;;;;;9.10;5.67;;;;;;;10.32;70.25;100102.81;232736;1174;115167;-69
2021/05/29 00:37:50;;;;;;;7.13;5.65;;;;;;;10.32;70.52;100105.48;232876;1174;115771;-69
2021/05/29 00:42:54;;;;;;;10.77;5.80;;;;;;;10.33;70.88;100107.91;232479;1174;115431;-68
2021/05/29 00:48:00;;;;;;;6.10;5.30;;;;;;;10.34;70.99;100103.41;232394;1174;116549;-69
2021/05/29 00:53:03;;;;;;;;;;;;;;;10.33;70.97;100115.91;234349;1174;116285;-70
2021/05/29 00:58:08;;;;;;;9.73;6.33;;;;;;;10.29;70.74;100116.58;233980;1174;103307;-69
2021/05/29 01:03:12;;;;;;;9.18;6.58;;;;;;;10.29;70.87;100127.23;234473;1174;116261;-69
2021/05/29 01:08:15;;;;;;;6.30;5.53;;;;;;;10.36;71.03;100120.80;234942;1174;115105;-69
2021/05/29 01:13:24;;;;;;;8.70;6.60;;;;;;;10.48;71.24;100136.02;233072;1170;116055;-70
2021/05/29 01:18:28;;;;;;;9.05;5.58;;;;;;;10.55;71.06;100118.09;232812;1174;115937;-69
2021/05/29 01:23:32;;;;;;;9.95;6.68;;;;;;;10.57;71.06;100118.69;232344;1174;115655;-69
2021/05/29 01:28:36;;;;;;;14.33;6.00;;;;;;;10.59;70.77;100119.27;232407;1174;115428;-69
2021/05/29 01:33:40;;;;;;;7.43;5.93;;;;;;;10.44;70.95;100115.14;232355;1170;115576;-69
2021/05/29 01:38:43;;;;;;;9.68;7.35;;;;;;;10.37;71.23;100117.09;233499;1174;115758;-68
2021/05/29 01:43:50;;;;;;;7.93;6.83;;;;;;;10.29;70.67;100117.39;233305;1174;115605;-69
2021/05/29 01:48:55;;;;;;;7.90;6.60;;;;;;;10.18;70.16;100112.77;232937;1174;115475;-69
2021/05/29 01:53:58;;;;;;;11.10;6.60;;;;;;;10.05;70.90;100112.94;232371;1174;114949;-69
2021/05/29 01:59:03;;;;;;;8.90;6.68;;;;;;;9.96;71.28;100116.92;232977;1174;115284;-69
2021/05/29 02:04:07;;;;;;;7.98;6.08;;;;;;;9.85;70.70;100125.63;233450;1174;115617;-70
2021/05/29 02:09:13;;;;;;;9.13;6.35;;;;;;;9.76;70.94;100119.80;232966;1174;115102;-69
2021/05/29 02:14:16;;;;;;;9.63;6.35;;;;;;;9.76;71.11;100117.13;232472;1174;114946;-69
2021/05/29 02:19:19;;;;;;;8.85;5.93;;;;;;;9.70;70.79;100112.68;232730;1174;115700;-69
2021/05/29 02:24:22;;;;;;;16.00;6.98;;;;;;;9.49;71.05;100121.86;232325;1174;115426;-69
2021/05/29 02:29:25;;;;;;;14.13;6.33;;;;;;;9.36;71.21;100127.31;232610;1174;115178;-70
2021/05/29 02:34:28;;;;;;;9.48;5.35;;;;;;;9.30;70.32;100136.97;232439;1174;116011;-70
2021/05/29 02:39:31;;;;;;;10.85;5.85;;;;;;;9.26;71.48;100132.29;232478;1174;115335;-68
2021/05/29 02:44:34;;;;;;;7.43;6.38;;;;;;;9.16;71.74;100130.13;232403;1174;115802;-68
2021/05/29 02:49:37;;;;;;;6.45;4.75;;;;;;;9.14;70.70;100134.03;232868;1174;116726;-69
2021/05/29 02:54:43;;;;;;;7.40;5.50;;;;;;;9.08;70.50;100133.86;234820;1174;115017;-69
2021/05/29 02:59:48;;;;;;;7.83;6.13;;;;;;;9.05;71.55;100142.27;235088;1174;115373;-69
2021/05/29 03:04:51;;;;;;;7.48;4.75;;;;;;;9.02;71.08;100137.38;235121;1174;115070;-69
2021/05/29 03:09:55;;;;;;;16.45;6.55;;;;;;;9.10;70.36;100137.13;235171;1174;114861;-70
2021/05/29 03:14:58;;;;;;;8.25;5.43;;;;;;;9.18;70.61;100144.00;235078;1174;115220;-71
2021/05/29 03:20:02;;;;;;;9.67;5.47;;;;;;;9.24;71.38;100137.02;235057;1174;115594;-68
2021/05/29 03:25:08;;;;;;;7.33;5.78;;;;;;;9.37;71.22;100142.25;235072;1174;114923;-67
2021/05/29 03:30:15;;;;;;;8.08;6.08;;;;;;;9.42;71.17;100143.23;232998;1174;117934;-67
2021/05/29 03:35:19;;;;;;;8.53;5.43;;;;;;;9.67;71.18;100151.20;232926;1174;115767;-68
2021/05/29 03:40:22;;;;;;;7.85;5.50;;;;;;;9.77;70.71;100156.85;233262;1174;115493;-67
2021/05/29 03:45:26;;;;;;;4.80;4.30;;;;;;;9.83;70.61;100155.13;232426;1174;116087;-67
2021/05/29 03:50:29;;;;;;;6.30;5.37;;;;;;;10.00;71.03;100155.39;232397;1174;115881;-70
2021/05/29 03:55:33;;;;;;;7.15;5.50;;;;;;;10.22;70.30;100153.13;233774;1174;115405;-68
2021/05/29 04:00:37;;;;;;;7.53;5.65;;;;;;;10.29;70.23;100160.02;232637;1174;120085;-67
2021/05/29 04:05:41;;;;;;;5.53;4.38;;;;;;;10.35;70.46;100153.81;232708;1169;115772;-69
2021/05/29 04:10:44;;;;;;;6.80;5.85;;;;;;;10.48;69.90;100160.00;232576;1174;116330;-67
2021/05/29 04:15:47;;;;;;;9.67;5.63;;;;;;;10.88;69.23;100166.46;232490;1171;115598;-68
2021/05/29 04:20:50;;;;;;;10.87;4.87;;;;;;;12.04;68.01;100165.05;232411;1174;115999;-68
2021/05/29 04:25:56;;;;;;;9.10;4.60;;;;;;;13.96;65.62;100162.43;233042;1174;116334;-69
2021/05/29 04:31:00;;;;;;;6.28;4.73;;;;;;;14.55;64.92;100162.69;233177;1174;115254;-69
2021/05/29 04:36:03;;;;;;;6.65;4.95;;;;;;;16.39;62.13;100163.96;232434;1174;120165;-69
2021/05/29 04:41:07;;;;;;;8.95;5.80;;;;;;;15.37;62.29;100167.02;232512;1174;116130;-68
2021/05/29 04:46:11;;;;;;;8.88;6.10;;;;;;;16.41;60.24;100156.44;233265;1174;116248;-68
2021/05/29 04:51:15;;;;;;;5.53;4.60;;;;;;;17.11;59.19;100163.14;233092;1173;115844;-68
2021/05/29 04:56:19;;;;;;;8.37;5.50;;;;;;;16.42;58.81;100166.13;232489;1174;116188;-68
2021/05/29 05:01:29;;;;;;;6.23;5.67;;;;;;;15.71;59.47;100178.34;233725;1174;116238;-68
2021/05/29 05:06:33;;;;;;;7.67;4.80;;;;;;;19.39;55.81;100168.95;234738;1176;116238;-69
2021/05/29 05:11:37;;;;;;;6.23;4.75;;;;;;;24.00;51.44;100173.92;233118;1174;116315;-69
2021/05/29 05:16:41;;;;;;;6.93;4.78;;;;;;;26.98;46.98;100175.41;232309;1176;116755;-70
2021/05/29 05:21:45;;;;;;;4.20;3.90;;;;;;;28.38;44.09;100188.20;235069;1176;117403;-71
2021/05/29 05:26:49;;;;;;;4.65;4.25;;;;;;;30.35;41.20;100176.91;233685;1176;116661;-73
2021/05/29 05:31:53;;;;;;;3.43;3.13;;;;;;;32.99;37.77;100191.80;233678;1174;116414;-70
2021/05/29 05:36:58;;;;;;;3.13;2.95;;;;;;;34.78;34.34;100184.06;233793;1174;116224;-73
2021/05/29 05:42:01;;;;;;;3.10;2.80;;;;;;;36.06;31.96;100188.08;232450;1174;117397;-70
2021/05/29 05:47:05;;;;;;;5.15;2.53;;;;;;;36.91;30.61;100197.52;232400;1176;116611;-71
2021/05/29 05:52:09;;;;;;;1.30;1.23;;;;;;;36.90;29.18;100193.95;232502;1174;116832;-70
2021/05/29 05:57:13;;;;;;;1.18;1.18;;;;;;;36.54;27.02;100189.64;232912;1174;115581;-70
2021/05/29 06:02:16;;;;;;;1.70;1.60;;;;;;;36.25;26.49;100192.45;232729;1174;115854;-70
2021/05/29 06:07:20;;;;;;;1.50;1.45;;;;;;;37.23;25.41;100201.00;232842;1174;116196;-74
2021/05/29 06:12:24;;;;;;;1.60;1.43;;;;;;;37.92;24.04;100188.27;232453;1175;116002;-70
2021/05/29 06:22:50;;;;;;;1.78;1.68;;;;;;;37.87;23.19;100197.08;232723;1174;116157;-70
2021/05/29 06:27:52;;;;;;;1.25;1.10;;;;;;;37.59;22.59;100201.60;232446;1174;116362;-70
2021/05/29 06:32:56;;;;;;;1.60;1.40;;;;;;;36.19;22.40;100188.45;232408;1174;115660;-71
2021/05/29 06:38:00;;;;;;;1.00;1.00;;;;;;;33.40;23.03;100194.67;232424;1174;115830;-70
2021/05/29 06:43:03;;;;;;;1.67;1.57;;;;;;;30.39;23.99;100188.00;232872;1174;116339;-69
2021/05/29 06:48:10;;;;;;;2.00;1.40;;;;;;;30.27;25.23;100188.89;232702;1175;116111;-69
2021/05/29 06:53:17;;;;;;;1.40;1.30;;;;;;;30.32;25.90;100194.13;233551;1174;115886;-69
2021/05/29 07:03:42;;;;;;;1.00;1.00;;;;;;;28.74;25.89;100205.78;232464;1175;116449;-69
2021/05/29 07:08:47;;;;;;;2.17;1.60;;;;;;;26.92;27.28;100193.11;233370;1174;116620;-69
2021/05/29 07:13:51;;;;;;;2.15;1.95;;;;;;;25.52;28.72;100193.17;235173;1174;117034;-69
2021/05/29 07:18:54;;;;;;;1.78;1.68;;;;;;;25.44;29.94;100189.31;235193;1176;117406;-69
2021/05/29 07:23:58;;;;;;;2.65;2.50;;;;;;;25.18;29.75;100186.61;234362;1174;116993;-70
2021/05/29 07:29:02;;;;;;;1.70;1.58;;;;;;;23.82;29.82;100200.27;234468;1174;115942;-69
2021/05/29 07:34:05;;;;;;;1.85;1.73;;;;;;;22.88;31.67;100192.14;234953;1173;115272;-69
2021/05/29 07:39:14;;;;;;;1.98;1.85;;;;;;;22.08;32.26;100195.34;233683;1174;119727;-69
2021/05/29 07:44:17;;;;;;;2.68;1.85;;;;;;;21.38;33.44;100193.53;233860;1174;115708;-69
2021/05/29 07:49:21;;;;;;;2.63;1.83;;;;;;;20.61;34.34;100197.55;232301;1174;115804;-70
2021/05/29 07:54:45;;;;;;;2.38;2.18;;;;;;;20.68;35.42;100198.02;233013;1174;116295;-69
2021/05/29 07:59:49;;;;;;;1.70;1.60;;;;;;;20.97;36.04;100193.28;233499;1174;115362;-69
2021/05/29 08:04:52;;;;;;;2.13;2.00;;;;;;;21.18;36.29;100185.66;232474;1174;115443;-70
2021/05/29 08:09:57;;;;;;;2.10;2.00;;;;;;;21.51;36.50;100186.53;233341;1174;116752;-69
2021/05/29 08:15:02;;;;;;;1.50;1.40;;;;;;;22.02;36.04;100188.39;232399;1167;115801;-69
2021/05/29 08:20:06;;;;;;;1.93;1.83;;;;;;;21.80;35.47;100187.12;232836;1174;115867;-69
2021/05/29 08:25:10;;;;;;;1.83;1.68;;;;;;;21.90;35.80;100177.20;234613;1174;115673;-71
2021/05/29 08:30:14;;;;;;;1.58;1.48;;;;;;;21.74;35.35;100187.50;233281;1174;116499;-66
2021/05/29 08:35:20;;;;;;;1.70;1.00;;;;;;;21.08;35.11;100181.21;232856;1174;115957;-68
2021/05/29 08:40:23;;;;;;;1.50;1.40;;;;;;;20.70;35.73;100179.56;234630;1173;115792;-70
2021/05/29 08:45:26;;;;;;;1.35;1.08;;;;;;;20.37;36.10;100181.30;232926;1174;115693;-70
2021/05/29 08:50:31;;;;;;;0.90;0.90;;;;;;;20.73;37.00;100181.70;232246;1170;116050;-69
2021/05/29 08:55:34;;;;;;;0.80;0.80;;;;;;;20.70;36.79;100184.98;232398;1174;115630;-70
2021/05/29 09:00:37;;;;;;;1.07;0.97;;;;;;;20.42;36.73;100192.10;232809;1174;116753;-70
2021/05/29 09:05:51;;;;;;;1.25;1.15;;;;;;;20.37;37.03;100171.30;233359;1174;117975;-71
2021/05/29 09:10:58;;;;;;;1.20;1.10;;;;;;;20.48;37.62;100180.89;232414;1174;118255;-70
2021/05/29 09:23:11;;;;;;;0.87;0.87;;;;;;;20.67;37.47;100175.53;479706;1174;102826;-68
2021/05/29 09:33:35;;;;;;;1.47;1.33;;;;;;;21.28;37.38;100166.56;469868;1170;118265;-69
2021/05/29 09:43:58;;;;;;;5.60;1.30;;;;;;;20.83;37.46;100168.80;468171;1174;116851;-68
2021/05/29 09:54:09;;;;;;;3.60;0.87;;;;;;;20.34;37.57;100162.91;465404;1167;115616;-69
2021/05/29 10:20:25;;;;;;;2.43;0.80;;;;;;;19.21;38.98;100169.63;522023;1090;103093;-70
2021/05/29 10:30:32;;;;;;;0.85;0.80;;;;;;;19.63;39.10;100153.63;509147;1104;119314;-71
2021/05/29 10:44:37;;;;;;;0.80;0.80;;;;;;;20.58;37.66;100160.20;261263;1090;102928;-69
2021/05/29 10:49:47;;;;;;;0.67;0.67;;;;;;;20.84;38.22;100135.19;255624;1103;114799;-70
2021/05/29 10:55:15;;;;;;;1.43;0.60;;;;;;;20.45;37.12;100143.59;254139;1098;115302;-71
2021/05/29 11:00:38;;;;;;;0.90;0.90;;;;;;;20.43;37.63;100147.69;256541;1101;114606;-70
2021/05/29 11:05:47;;;;;;;1.43;1.10;;;;;;;20.38;37.39;100131.49;255537;1104;114763;-74
2021/05/29 11:10:53;;;;;;;0.80;0.80;;;;;;;20.24;37.79;100146.78;256100;1104;115816;-74
2021/05/29 11:21:18;;;;;;;1.10;0.97;;;;;;;20.17;38.46;100137.13;254940;1096;119249;-72
2021/05/29 11:26:26;;;;;;;0.90;0.90;;;;;;;20.10;37.81;100135.86;254743;1107;116045;-72
2021/05/29 11:31:43;;;;;;;17.33;2.03;;;;;;;20.09;37.83;100128.83;254855;1107;116669;-69
2021/05/29 11:36:47;;;;;;;0.97;0.97;;;;;;;19.78;38.05;100126.45;254225;1102;116682;-73
2021/05/29 11:42:00;;;;;;;0.63;0.63;;;;;;;19.28;38.62;100122.26;255580;1107;115631;-73
2021/05/29 11:47:16;;;;;;;0.38;0.38;;;;;;;19.39;38.39;100134.61;254702;1107;115061;-71
2021/05/29 11:52:21;;;;;;;0.54;0.54;;;;;;;19.56;38.52;100114.51;255505;1107;115126;-71
2021/05/29 11:57:26;;;;;;;;;;;;;;;19.76;38.78;100119.70;255566;1107;114974;-71
2021/05/29 12:02:32;;;;;;;0.60;0.60;;;;;;;19.61;38.52;100112.53;256551;1106;102966;-74
2021/05/29 12:07:37;;;;;;;0.80;0.80;;;;;;;19.38;38.86;100124.08;256303;1107;115394;-72
2021/05/29 12:12:42;;;;;;;0.60;0.60;;;;;;;19.21;38.84;100119.09;256300;1107;115770;-73
2021/05/29 12:17:47;;;;;;;;;;;;;;;18.78;39.95;100147.73;256034;1107;116156;-71
2021/05/29 12:23:02;;;;;;;1.37;1.30;;;;;;;18.40;41.09;100141.14;255833;1108;103208;-71
2021/05/29 12:28:11;;;;;;;1.27;1.27;;;;;;;18.12;42.16;100140.70;254990;1107;194185;-71
2021/05/29 12:33:24;;;;;;;1.15;0.83;;;;;;;17.87;42.57;100143.46;254464;1107;115284;-70
2021/05/29 12:38:30;;;;;;;0.65;0.65;;;;;;;18.02;42.96;100137.24;253825;1107;115347;-71
2021/05/29 12:43:40;;;;;;;0.68;0.64;;;;;;;18.00;43.09;100137.52;254459;1107;115882;-70
2021/05/29 12:49:08;;;;;;;0.55;0.55;;;;;;;17.95;43.14;100136.71;253795;1101;114366;-68
2021/05/29 12:54:14;;;;;;;0.93;0.57;;;;;;;17.69;43.10;100131.38;254477;1107;114588;-69
2021/05/29 12:59:26;;;;;;;1.47;0.97;;;;;;;17.71;43.11;100131.91;254415;1107;115052;-66
2021/05/29 13:10:02;;;;;;;1.75;1.65;;;;;;;17.48;43.77;100125.14;253887;1107;115676;-71
2021/05/29 13:15:15;;;;;;;1.73;1.57;;;;;;;17.46;44.32;100124.59;253905;1107;115526;-69
2021/05/29 13:20:22;;;;;;;0.95;0.75;;;;;;;17.42;44.59;100125.44;253899;1107;115484;-69
2021/05/29 13:26:06;;;;;;;1.40;1.40;;;;;;;17.48;44.99;100121.64;254162;1107;115349;-70
2021/05/29 13:31:10;;;;;;;1.63;1.53;;;;;;;17.40;45.29;100128.40;254229;1102;115457;-70
2021/05/29 13:36:15;;;;;;;1.23;1.23;;;;;;;17.35;44.93;100116.81;254324;1107;115389;-71
2021/05/29 13:41:20;;;;;;;1.10;0.83;;;;;;;17.45;45.25;100108.70;253913;1107;114778;-70
2021/05/29 13:46:25;;;;;;;1.10;1.10;;;;;;;17.44;45.45;100107.89;254833;1107;116309;-71
2021/05/29 13:51:35;;;;;;;0.80;0.80;;;;;;;17.61;45.07;100102.23;254315;1107;114659;-70
2021/05/29 13:56:39;;;;;;;1.00;0.88;;;;;;;17.76;44.81;100104.91;254804;1107;115846;-70
2021/05/29 14:01:43;;;;;;;0.57;0.57;;;;;;;17.81;43.93;100102.20;255884;1107;115103;-71
2021/05/29 14:06:49;;;;;;;2.85;0.60;;;;;;;17.70;43.90;100106.02;256435;1107;139624;-70
2021/05/29 14:11:55;;;;;;;0.70;0.60;;;;;;;17.63;43.91;100101.95;254647;1107;116082;-70
2021/05/29 14:17:20;;;;;;;0.80;0.80;;;;;;;17.49;43.70;100096.30;254163;1107;117113;-70
2021/05/29 14:22:26;;;;;;;1.68;1.58;;;;;;;17.52;44.30;100098.45;253780;1107;116966;-70
2021/05/29 14:27:31;;;;;;;1.40;1.30;;;;;;;17.88;44.64;100095.73;257402;1107;115009;-70
2021/05/29 14:32:38;;;;;;;1.10;0.97;;;;;;;18.18;44.57;100098.33;261988;1107;102955;-71
2021/05/29 14:37:44;;;;;;;1.55;1.40;;;;;;;18.47;44.19;100093.06;259898;1102;103068;-72
2021/05/29 14:42:50;;;;;;;;;;;;;;;18.64;44.18;100092.75;260250;1107;103150;-73
2021/05/29 14:47:54;;;;;;;0.80;0.80;;;;;;;18.64;44.16;100090.05;260182;1107;103187;-73
2021/05/29 14:52:58;;;;;;;0.70;0.70;;;;;;;18.26;43.91;100086.97;260405;1107;103022;-71
2021/05/29 14:58:02;;;;;;;1.50;1.40;;;;;;;17.69;44.57;100092.81;260459;1103;103256;-71
2021/05/29 15:03:08;;;;;;;1.13;1.07;;;;;;;17.25;45.06;100097.94;259918;1103;103013;-71
2021/05/29 15:08:12;;;;;;;1.10;1.10;;;;;;;16.83;45.98;100107.05;260525;1107;103336;-70
2021/05/29 15:13:16;;;;;;;1.10;1.03;;;;;;;16.45;46.82;100110.98;260040;1108;103499;-70
2021/05/29 15:18:19;;;;;;;1.95;1.75;;;;;;;16.30;47.59;100109.03;259865;1107;102939;-70
2021/05/29 15:23:25;;;;;;;1.73;1.65;;;;;;;16.13;48.10;100114.63;260072;1107;103059;-68
2021/05/29 15:28:29;;;;;;;1.73;1.67;;;;;;;15.97;49.26;100125.55;260592;1107;103059;-71
2021/05/29 15:33:35;;;;;;;;;;;;;;;15.84;49.55;100126.83;261534;1107;104593;-69
2021/05/29 15:38:42;;;;;;;1.27;1.17;;;;;;;15.81;49.58;100122.78;260135;1107;103075;-70
2021/05/29 15:43:47;;;;;;;3.13;2.15;;;;;;;15.97;49.99;100125.55;260761;1108;102956;-71
2021/05/29 15:48:50;;;;;;;2.25;2.15;;;;;;;15.99;49.19;100124.22;261286;1107;102944;-74
2021/05/29 15:53:55;;;;;;;2.18;1.98;;;;;;;15.83;49.66;100126.02;260064;1103;102975;-68
2021/05/29 15:58:59;;;;;;;1.70;1.60;;;;;;;15.81;49.77;100124.66;261887;1107;102955;-68
2021/05/29 16:04:03;;;;;;;46.83;5.87;;;;;;;15.82;50.49;100121.72;261804;1107;102424;-69
2021/05/29 16:09:08;;;;;;;4.17;3.20;;;;;;;15.76;51.36;100130.00;260094;1107;103033;-71
2021/05/29 16:14:14;;;;;;;2.67;2.37;;;;;;;15.59;51.21;100132.05;262528;1107;101405;-69
2021/05/29 16:19:17;;;;;;;2.30;2.10;;;;;;;15.52;51.05;100120.67;260926;1107;103067;-70
2021/05/29 16:24:22;;;;;;;2.20;1.97;;;;;;;15.41;51.52;100119.77;262448;1107;102828;-69
2021/05/29 16:29:26;;;;;;;2.23;2.07;;;;;;;15.27;51.37;100126.66;262560;1107;102661;-70
2021/05/29 16:34:30;;;;;;;3.60;2.33;;;;;;;15.00;51.79;100132.03;260126;1107;102972;-71
2021/05/29 16:39:34;;;;;;;2.77;2.27;;;;;;;14.77;52.65;100128.59;261506;1107;102872;-71
2021/05/29 16:44:40;;;;;;;2.63;2.43;;;;;;;14.71;53.46;100140.33;260754;1107;103049;-71
2021/05/29 16:49:45;;;;;;;4.50;1.80;;;;;;;14.63;53.41;100143.48;261816;1107;102939;-69
2021/05/29 16:54:49;;;;;;;2.30;2.10;;;;;;;14.58;53.94;100137.23;261482;1107;102946;-68
2021/05/29 16:59:55;;;;;;;2.85;2.15;;;;;;;14.37;53.96;100139.63;260958;1107;102958;-69
2021/05/29 17:05:00;;;;;;;2.27;2.03;;;;;;;14.24;55.16;100140.02;261191;1107;103015;-70
2021/05/29 17:10:08;;;;;;;4.98;3.98;;;;;;;14.16;55.34;100143.13;260657;1107;103041;-65
2021/05/29 17:15:13;;;;;;;3.50;3.15;;;;;;;14.10;55.83;100144.11;261476;1107;103079;-68
2021/05/29 17:20:17;;;;;;;8.25;5.03;;;;;;;14.05;56.48;100147.56;259935;1107;102965;-68
2021/05/29 17:25:20;;;;;;;3.83;3.28;;;;;;;14.01;56.71;100150.97;260464;1107;103091;-67
2021/05/29 17:30:25;;;;;;;4.33;3.93;;;;;;;13.93;56.42;100154.88;260697;1107;103123;-67
2021/05/29 17:35:29;;;;;;;5.10;3.60;;;;;;;13.87;57.02;100152.36;260330;1107;103088;-67
2021/05/29 17:40:35;;;;;;;5.50;4.20;;;;;;;13.76;57.00;100149.52;260300;1107;103064;-68
2021/05/29 17:45:40;;;;;;;3.23;2.78;;;;;;;13.67;57.53;100155.56;261034;1107;104165;-69
2021/05/29 17:50:53;;;;;;;3.17;2.83;;;;;;;13.58;58.16;100155.16;260235;1107;102937;-68
2021/05/29 17:55:59;;;;;;;3.73;3.28;;;;;;;13.47;58.36;100161.39;260608;1102;103081;-69
2021/05/29 18:01:07;;;;;;;7.90;3.97;;;;;;;13.41;59.15;100152.48;260843;1107;103340;-67
2021/05/29 18:06:12;;;;;;;3.90;3.60;;;;;;;13.35;59.51;100155.32;259998;1107;102992;-68
2021/05/29 18:11:18;;;;;;;5.67;3.20;;;;;;;13.32;60.03;100159.29;259988;1107;103033;-67
2021/05/29 18:16:23;;;;;;;7.60;3.87;;;;;;;13.34;60.65;100159.86;261638;1107;102979;-67
2021/05/29 18:21:29;;;;;;;4.13;3.50;;;;;;;13.36;60.96;100155.08;261268;1107;102947;-67
2021/05/29 18:26:34;;;;;;;4.90;4.23;;;;;;;13.32;60.87;100159.29;260536;1107;103341;-67
2021/05/29 18:31:39;;;;;;;5.03;3.60;;;;;;;13.30;61.70;100165.94;262603;1107;103262;-66
2021/05/29 18:37:14;;;;;;;5.45;4.85;;;;;;;13.25;61.32;100158.63;262299;1103;101462;-68
2021/05/29 18:42:17;;;;;;;3.25;2.85;;;;;;;13.21;61.75;100167.38;262554;1107;101247;-68
2021/05/29 18:47:24;;;;;;;9.27;6.17;;;;;;;13.20;61.62;100168.43;262259;1103;103292;-68
2021/05/29 18:52:31;;;;;;;11.00;5.90;;;;;;;13.17;62.31;100182.29;259903;1107;103071;-69
2021/05/29 18:57:36;;;;;;;8.90;6.48;;;;;;;13.07;62.49;100181.05;260863;1107;102931;-68
2021/05/29 19:02:51;;;;;;;6.97;4.77;;;;;;;13.05;62.68;100191.18;261230;1107;103027;-69
2021/05/29 19:09:06;;;;;;;4.60;3.88;;;;;;;12.97;62.88;100188.06;260619;1107;106193;-69
2021/05/29 19:13:22;;;;;;;4.93;4.08;;;;;;;12.89;63.12;100197.28;261178;1107;102994;-67
2021/05/29 19:18:27;;;;;;;5.65;4.80;;;;;;;12.86;63.11;100203.10;261024;1107;101826;-68
2021/05/29 19:23:35;;;;;;;5.20;4.80;;;;;;;12.85;63.08;100198.80;260538;1108;102968;-70
2021/05/29 19:28:39;;;;;;;4.40;3.93;;;;;;;12.78;63.42;100211.53;260101;1102;103030;-70
2021/05/29 19:39:10;;;;;;;6.60;3.25;;;;;;;12.39;64.07;100216.61;259975;1103;103072;-66
2021/05/29 20:27:08;;;;;;;7.77;6.97;;;;;;;11.83;65.82;100237.77;262068;1107;102930;-68
2021/05/29 20:32:14;;;;;;;5.83;5.17;;;;;;;11.76;65.91;100238.67;262639;1107;102604;-69
2021/05/29 20:37:19;;;;;;;10.67;6.60;;;;;;;11.65;66.21;100244.77;262604;1107;101475;-68
2021/05/29 20:42:26;;;;;;;;;;;;;;;11.61;66.62;100243.63;262654;1107;102678;-69
2021/05/29 20:47:32;;;;;;;8.53;6.03;;;;;;;11.61;67.10;100246.30;262272;1107;103042;-69
2021/05/29 20:52:38;;;;;;;11.90;8.53;;;;;;;11.70;67.00;100246.75;261587;1102;103021;-71
2021/05/29 20:57:43;;;;;;;11.58;7.25;;;;;;;11.72;67.31;100240.14;260682;1107;103094;-70
2021/05/29 21:02:48;;;;;;;9.78;8.35;;;;;;;11.76;67.53;100246.69;262080;1107;103073;-69
2021/05/29 21:07:53;;;;;;;10.90;8.25;;;;;;;11.76;67.36;100244.02;261298;1107;102966;-70
2021/05/29 21:12:57;;;;;;;10.30;6.07;;;;;;;11.74;67.20;100239.92;260665;1107;103070;-71
2021/05/29 21:23:26;;;;;;;6.70;4.55;;;;;;;11.71;67.07;100257.20;260812;1107;103074;-65
2021/05/29 21:28:34;;;;;;;5.75;5.18;;;;;;;11.71;66.80;100254.54;260767;1101;102972;-71
2021/05/29 21:33:38;;;;;;;4.28;3.70;;;;;;;11.66;66.76;100258.94;260271;1107;102973;-70
2021/05/29 21:38:46;;;;;;;4.98;3.33;;;;;;;11.61;66.95;100254.30;260733;1107;102989;-67
2021/05/29 21:43:55;;;;;;;6.20;3.08;;;;;;;11.54;67.01;100258.11;260237;1107;103021;-71
2021/05/29 21:49:17;;;;;;;3.48;3.15;;;;;;;11.46;66.87;100264.58;261087;1107;102960;-68
2021/05/29 21:54:24;;;;;;;3.85;3.23;;;;;;;11.45;66.89;100263.77;260591;1103;103052;-69
2021/05/29 21:59:30;;;;;;;3.65;3.18;;;;;;;11.45;66.64;100260.28;260142;1102;103059;-70
2021/05/29 22:04:37;;;;;;;7.38;3.50;;;;;;;11.41;66.67;100270.59;260673;1107;103067;-70
2021/05/29 22:09:57;;;;;;;6.73;4.57;;;;;;;11.35;66.86;100265.34;260459;1107;102994;-70
2021/05/29 22:20:31;;;;;;;5.25;4.75;;;;;;;11.25;67.05;100270.43;260411;1107;102939;-69
2021/05/29 22:31:01;;;;;;;4.77;3.83;;;;;;;11.23;67.48;100265.31;262134;1107;102939;-67
2021/05/29 22:36:08;;;;;;;3.17;2.77;;;;;;;11.24;67.51;100271.47;262312;1107;102959;-67
2021/05/29 22:41:17;;;;;;;6.07;3.83;;;;;;;11.18;67.37;100267.84;262232;1107;101356;-69
2021/05/29 22:46:22;;;;;;;6.20;3.90;;;;;;;11.16;67.77;100269.11;262637;1107;101012;-67
2021/05/29 22:51:27;;;;;;;9.33;5.43;;;;;;;11.13;67.79;100283.70;262319;1103;103080;-68
2021/05/29 22:56:33;;;;;;;4.15;2.80;;;;;;;11.11;67.92;100280.45;260990;1107;103043;-70
2021/05/29 23:01:39;;;;;;;2.73;2.50;;;;;;;11.06;67.45;100278.45;260551;1107;102960;-69
2021/05/29 23:06:45;;;;;;;3.85;3.03;;;;;;;11.03;68.01;100281.56;261520;1107;101704;-68
2021/05/29 23:11:50;;;;;;;4.38;2.98;;;;;;;11.00;67.90;100279.38;260858;1107;102991;-69
2021/05/29 23:16:55;;;;;;;2.78;2.58;;;;;;;10.93;68.50;100283.16;260700;1107;102938;-69
2021/05/29 23:22:00;;;;;;;2.83;2.23;;;;;;;10.86;68.61;100283.22;260979;1107;102965;-70
2021/05/29 23:27:06;;;;;;;4.05;3.65;;;;;;;10.87;68.45;100289.38;260696;1107;103314;-69
2021/05/29 23:32:16;;;;;;;4.80;3.30;;;;;;;10.91;68.80;100286.04;261238;1107;103061;-69
2021/05/29 23:37:21;;;;;;;5.53;3.28;;;;;;;10.89;68.42;100290.78;260008;1107;103027;-69
2021/05/29 23:42:27;;;;;;;7.00;4.15;;;;;;;10.85;68.54;100292.26;260501;1107;102994;-69
2021/05/29 23:47:31;;;;;;;3.40;3.10;;;;;;;10.82;68.70;100294.55;261103;1102;102965;-68
2021/05/29 23:52:37;;;;;;;4.98;3.18;;;;;;;10.82;69.32;100294.55;260229;1107;103127;-69
2021/05/29 23:57:43;;;;;;;2.98;2.78;;;;;;;10.83;69.11;100299.66;260691;1107;103049;-69
